Time;durP1;ratioP1;P1;durP2;ratioP2;P2;SDS_P1;SDS_P2;PMS_P1;PMS_P2;Temp;Humidity;BMP_temperature;BMP_pressure;BME280_temperature;BME280_humidity;BME280_pressure;Samples;Min_cycle;Max_cycle;Signal;HPM_P1;HPM_P2
2022/08/30 00:03:13;;;;;;;1999.90;999.90;;;15.60;70.70;;;;;;5153081;27;20599;-78
2022/08/30 00:05:40;;;;;;;1999.90;999.90;;;15.60;74.20;;;;;;5153325;27;20494;-71
2022/08/30 00:08:06;;;;;;;1999.90;999.90;;;15.60;76.70;;;;;;5134872;27;20057;-71
2022/08/30 00:10:32;;;;;;;1999.90;999.90;;;15.60;80.10;;;;;;5134102;27;20054;-71
2022/08/30 00:12:58;;;;;;;1999.90;999.90;;;15.60;81.20;;;;;;5152932;27;20491;-71
2022/08/30 00:15:25;;;;;;;1999.90;999.90;;;15.60;85.40;;;;;;5152183;27;20051;-71
2022/08/30 00:17:50;;;;;;;1999.90;999.90;;;15.60;86.80;;;;;;5153207;27;20039;-71
2022/08/30 00:20:21;;;;;;;1999.90;999.90;;;15.60;90.40;;;;;;5152076;27;20065;-78
2022/08/30 00:22:47;;;;;;;1999.90;999.90;;;15.60;90.90;;;;;;5153078;27;20050;-71
2022/08/30 00:25:14;;;;;;;1999.90;999.90;;;15.60;91.50;;;;;;5152699;27;20038;-73
2022/08/30 00:27:41;;;;;;;1999.90;999.90;;;15.60;92.20;;;;;;5152649;27;20107;-71
2022/08/30 00:30:09;;;;;;;1999.90;999.90;;;15.60;92.70;;;;;;5152776;27;20038;-71
2022/08/30 00:32:34;;;;;;;1999.90;999.90;;;15.60;92.40;;;;;;5152157;27;20073;-71
2022/08/30 00:35:01;;;;;;;1999.90;999.90;;;15.70;92.20;;;;;;5151934;27;20471;-75
2022/08/30 00:37:27;;;;;;;1999.90;999.90;;;15.70;94.20;;;;;;5152334;27;20479;-71
2022/08/30 00:39:52;;;;;;;1999.90;999.90;;;15.70;90.90;;;;;;5152635;27;20039;-72
2022/08/30 00:42:20;;;;;;;1999.90;999.90;;;15.70;90.40;;;;;;5152034;27;20474;-71
2022/08/30 00:44:46;;;;;;;1999.90;999.90;;;15.70;88.80;;;;;;5151052;27;20042;-71
2022/08/30 00:47:12;;;;;;;1999.90;999.90;;;15.70;85.50;;;;;;5152448;27;20050;-76
2022/08/30 00:49:44;;;;;;;1999.90;999.90;;;15.70;83.50;;;;;;5152417;27;20120;-73
2022/08/30 00:52:11;;;;;;;1999.90;999.90;;;15.70;80.10;;;;;;5134478;27;20049;-71
2022/08/30 00:54:40;;;;;;;1999.90;999.90;;;15.80;81.10;;;;;;5151854;27;20047;-71
2022/08/30 00:57:07;;;;;;;1999.90;999.90;;;15.80;80.30;;;;;;5151850;27;20070;-71
2022/08/30 00:59:33;;;;;;;1999.90;999.90;;;15.80;82.20;;;;;;5151934;27;20120;-71
2022/08/30 01:02:01;;;;;;;1999.90;999.90;;;15.80;85.00;;;;;;5152320;27;20042;-71
2022/08/30 01:04:28;;;;;;;1999.90;999.90;;;15.80;85.00;;;;;;5152094;27;20038;-71
2022/08/30 01:06:55;;;;;;;1999.90;999.90;;;15.70;86.40;;;;;;5133841;27;20051;-71
2022/08/30 01:09:21;;;;;;;1999.90;999.90;;;15.80;86.40;;;;;;5151999;27;20440;-78
2022/08/30 01:11:47;;;;;;;1999.90;999.90;;;15.80;90.30;;;;;;5151721;27;20043;-73
2022/08/30 01:14:14;;;;;;;1999.90;999.90;;;15.70;91.80;;;;;;5152110;27;20047;-71
2022/08/30 01:16:42;;;;;;;1999.90;999.90;;;15.70;93.40;;;;;;5133215;27;20089;-71
2022/08/30 01:19:24;;;;;;;1999.90;999.90;;;15.70;94.20;;;;;;5133714;27;20122;-71
2022/08/30 01:21:58;;;;;;;1999.90;999.90;;;15.60;95.20;;;;;;5133485;27;20046;-71
2022/08/30 01:24:23;;;;;;;1999.90;999.90;;;15.60;95.60;;;;;;5151762;27;20125;-78
2022/08/30 01:26:49;;;;;;;1999.90;999.90;;;15.60;96.50;;;;;;5132191;27;20138;-71
2022/08/30 01:29:20;;;;;;;1999.90;999.90;;;15.60;97.30;;;;;;5151495;27;20130;-77
2022/08/30 01:31:46;;;;;;;1999.90;999.90;;;15.50;99.10;;;;;;5133038;27;20068;-71
2022/08/30 01:34:12;;;;;;;1999.90;999.90;;;15.50;99.40;;;;;;5152200;27;20047;-71
2022/08/30 01:36:41;;;;;;;1999.90;999.90;;;15.50;99.90;;;;;;5133034;27;20043;-71
2022/08/30 01:39:08;;;;;;;1999.90;999.90;;;15.50;99.90;;;;;;5151883;27;20494;-71
2022/08/30 01:41:35;;;;;;;1999.90;999.90;;;15.50;99.90;;;;;;5151541;27;20043;-71
2022/08/30 01:44:04;;;;;;;1999.90;999.90;;;15.50;99.90;;;;;;5133604;27;20192;-73
2022/08/30 01:46:34;;;;;;;1999.90;999.90;;;15.50;99.90;;;;;;5151347;27;20047;-74
2022/08/30 01:49:03;;;;;;;1999.90;999.90;;;15.50;99.90;;;;;;5151761;27;20051;-71
2022/08/30 01:51:30;;;;;;;1999.90;999.90;;;15.40;99.90;;;;;;5151663;27;20277;-72
2022/08/30 01:53:56;;;;;;;1999.90;999.90;;;15.40;99.90;;;;;;5151771;27;20047;-71
2022/08/30 01:56:23;;;;;;;1999.90;999.90;;;15.40;99.90;;;;;;5154260;27;20039;-74
2022/08/30 01:58:50;;;;;;;1999.90;999.90;;;15.40;99.90;;;;;;5155184;27;20058;-74
2022/08/30 02:01:18;;;;;;;1999.90;999.90;;;15.30;99.90;;;;;;5137379;27;20046;-71
2022/08/30 02:03:45;;;;;;;1999.90;999.90;;;15.80;99.90;;;;;;5155146;27;20047;-77
2022/08/30 02:06:15;;;;;;;1999.90;999.90;;;15.40;99.90;;;;;;5155587;27;20130;-73
2022/08/30 02:08:42;;;;;;;1999.90;999.90;;;15.40;99.90;;;;;;5155421;27;20291;-73
2022/08/30 02:11:08;;;;;;;1999.90;999.90;;;15.30;99.90;;;;;;5136647;27;20479;-71
2022/08/30 02:13:36;;;;;;;1999.90;999.90;;;15.30;99.90;;;;;;5154567;27;20068;-70
2022/08/30 02:16:04;;;;;;;1999.90;999.90;;;15.30;99.90;;;;;;5155950;27;20042;-71
2022/08/30 02:18:32;;;;;;;1999.90;999.90;;;15.30;99.90;;;;;;5119269;27;20057;-71
2022/08/30 02:20:57;;;;;;;1999.90;999.90;;;15.30;99.90;;;;;;5155213;27;20569;-71
2022/08/30 02:23:23;;;;;;;1999.90;999.90;;;15.30;99.90;;;;;;5137063;27;20126;-76
2022/08/30 02:25:49;;;;;;;1999.90;999.90;;;15.20;99.90;;;;;;5154368;27;20062;-73
2022/08/30 02:28:14;;;;;;;1999.90;999.90;;;15.20;99.90;;;;;;5154661;27;20061;-73
2022/08/30 02:30:41;;;;;;;1999.90;999.90;;;15.20;99.90;;;;;;5154699;27;20461;-72
2022/08/30 02:33:07;;;;;;;1999.90;999.90;;;15.10;99.90;;;;;;5135704;27;20046;-71
2022/08/30 02:35:33;;;;;;;1999.90;999.90;;;15.10;99.90;;;;;;5155640;27;20283;-71
2022/08/30 02:37:59;;;;;;;1999.90;999.90;;;15.10;99.90;;;;;;5155909;27;20049;-71
2022/08/30 02:40:25;;;;;;;1999.90;999.90;;;15.00;99.90;;;;;;5155908;27;20046;-71
2022/08/30 02:42:51;;;;;;;1999.90;999.90;;;15.00;99.90;;;;;;5154348;27;20054;-76
2022/08/30 02:45:16;;;;;;;1999.90;999.90;;;14.90;99.90;;;;;;5154608;27;20122;-74
2022/08/30 02:47:42;;;;;;;1999.90;999.90;;;14.80;99.90;;;;;;5155113;27;20121;-71
2022/08/30 02:50:09;;;;;;;1999.90;999.90;;;14.80;99.90;;;;;;5136103;27;20080;-72
2022/08/30 02:52:36;;;;;;;1999.90;999.90;;;14.70;99.90;;;;;;5136540;27;20099;-73
2022/08/30 02:55:04;;;;;;;1999.90;999.90;;;14.70;99.90;;;;;;5154398;27;20057;-75
2022/08/30 02:57:30;;;;;;;1999.90;999.90;;;14.60;99.90;;;;;;5154745;27;20143;-79
2022/08/30 02:59:55;;;;;;;1999.90;999.90;;;14.60;99.90;;;;;;5153798;27;20107;-74
2022/08/30 03:02:21;;;;;;;1999.90;999.90;;;14.50;99.90;;;;;;5154442;27;20082;-72
2022/08/30 03:04:48;;;;;;;1999.90;999.90;;;14.40;99.90;;;;;;5118965;27;20498;-76
2022/08/30 03:07:15;;;;;;;1999.90;999.90;;;14.40;99.90;;;;;;5153720;27;20512;-71
2022/08/30 03:09:40;;;;;;;1999.90;999.90;;;14.30;99.90;;;;;;5154309;27;20093;-71
2022/08/30 03:12:07;;;;;;;1999.90;999.90;;;14.20;99.90;;;;;;5153975;27;20078;-71
2022/08/30 03:14:35;;;;;;;1999.90;999.90;;;14.10;99.90;;;;;;5153729;27;20045;-78
2022/08/30 03:17:02;;;;;;;1999.90;999.90;;;14.10;99.90;;;;;;5154062;27;20103;-75
2022/08/30 03:19:27;;;;;;;1999.90;999.90;;;14.00;99.90;;;;;;5154550;27;20060;-73
2022/08/30 03:21:53;;;;;;;1999.90;999.90;;;14.00;99.90;;;;;;5153558;27;20034;-71
2022/08/30 03:24:20;;;;;;;1999.90;999.90;;;14.00;99.90;;;;;;5154619;27;20482;-71
2022/08/30 03:26:45;;;;;;;1999.90;999.90;;;13.90;99.90;;;;;;5134551;27;20117;-73
2022/08/30 03:29:11;;;;;;;1999.90;999.90;;;13.90;99.90;;;;;;5154435;27;20058;-71
2022/08/30 03:31:37;;;;;;;1999.90;999.90;;;13.80;99.90;;;;;;5152980;27;20035;-71
2022/08/30 03:34:04;;;;;;;1999.90;999.90;;;13.80;99.90;;;;;;5153778;27;20103;-71
2022/08/30 03:36:30;;;;;;;1999.90;999.90;;;13.80;99.90;;;;;;5153905;27;20047;-72
2022/08/30 03:38:56;;;;;;;1999.90;999.90;;;13.80;99.90;;;;;;5154153;27;20038;-71
2022/08/30 03:41:23;;;;;;;1999.90;999.90;;;13.70;99.90;;;;;;5153298;27;20051;-74
2022/08/30 03:43:49;;;;;;;1999.90;999.90;;;13.70;99.90;;;;;;5153195;27;20125;-71
2022/08/30 03:46:15;;;;;;;1999.90;999.90;;;13.60;99.90;;;;;;5117662;27;20043;-71
2022/08/30 03:48:41;;;;;;;1999.90;999.90;;;13.60;99.90;;;;;;5153746;27;20046;-71
2022/08/30 03:51:07;;;;;;;1999.90;999.90;;;13.60;99.90;;;;;;5153823;27;20050;-71
2022/08/30 03:53:33;;;;;;;1999.90;999.90;;;13.50;99.90;;;;;;5153635;27;20049;-71
2022/08/30 03:55:58;;;;;;;1999.90;999.90;;;13.40;99.90;;;;;;5153454;27;20091;-77
2022/08/30 03:58:24;;;;;;;1999.90;999.90;;;13.40;99.90;;;;;;5153080;27;20091;-71
2022/08/30 04:00:50;;;;;;;1999.90;999.90;;;13.30;99.90;;;;;;5134552;27;20053;-74
2022/08/30 04:03:17;;;;;;;1999.90;999.90;;;13.30;99.90;;;;;;5153158;27;20043;-71
2022/08/30 04:05:43;;;;;;;1999.90;999.90;;;13.30;99.90;;;;;;5152312;27;20126;-71
2022/08/30 04:08:08;;;;;;;1999.90;999.90;;;13.20;99.90;;;;;;5134677;27;20133;-75
2022/08/30 04:10:34;;;;;;;1999.90;999.90;;;13.20;99.90;;;;;;5135268;27;20043;-78
2022/08/30 04:13:00;;;;;;;1999.90;999.90;;;13.20;99.90;;;;;;5152356;27;20098;-71
2022/08/30 04:15:26;;;;;;;1999.90;999.90;;;13.10;99.90;;;;;;5135767;27;20046;-71
2022/08/30 04:17:53;;;;;;;1999.90;999.90;;;13.10;99.90;;;;;;5153808;27;20512;-71
2022/08/30 04:20:19;;;;;;;1999.90;999.90;;;13.10;99.90;;;;;;5152437;27;20099;-72
2022/08/30 04:22:45;;;;;;;1999.90;999.90;;;13.00;99.90;;;;;;5152025;27;20050;-71
2022/08/30 04:25:11;;;;;;;1999.90;999.90;;;13.00;99.90;;;;;;5153112;27;20501;-72
2022/08/30 04:27:37;;;;;;;1999.90;999.90;;;13.00;99.90;;;;;;5154418;27;20532;-70
2022/08/30 04:30:04;;;;;;;1999.90;999.90;;;13.00;99.90;;;;;;5153230;27;20122;-71
2022/08/30 04:32:30;;;;;;;1999.90;999.90;;;13.00;99.90;;;;;;5135447;27;20049;-71
2022/08/30 04:34:59;;;;;;;1999.90;999.90;;;12.90;99.90;;;;;;5134826;27;20034;-71
2022/08/30 04:37:25;;;;;;;1999.90;999.90;;;12.90;99.90;;;;;;5153084;27;20047;-70
2022/08/30 04:39:55;;;;;;;1999.90;999.90;;;12.90;99.10;;;;;;5134380;27;20487;-71
2022/08/30 04:42:20;;;;;;;1999.90;999.90;;;13.40;96.90;;;;;;5153305;27;20057;-74
2022/08/30 04:44:46;;;;;;;1999.90;999.90;;;12.90;93.50;;;;;;5153107;27;20483;-70
2022/08/30 04:47:11;;;;;;;1999.90;999.90;;;12.80;90.00;;;;;;5151242;27;20129;-71
2022/08/30 04:49:37;;;;;;;1999.90;999.90;;;13.00;81.00;;;;;;5117472;27;20094;-71
2022/08/30 04:52:05;;;;;;;1999.90;999.90;;;12.70;72.00;;;;;;5152647;27;20095;-74
2022/08/30 04:54:31;;;;;;;1999.90;999.90;;;12.70;62.60;;;;;;5152606;27;20125;-71
2022/08/30 04:56:57;;;;;;;1999.90;999.90;;;12.70;53.70;;;;;;5148004;27;20042;-72
2022/08/30 04:59:22;;;;;;;1999.90;999.90;;;12.70;47.40;;;;;;5153864;27;20046;-71
2022/08/30 05:01:48;;;;;;;1999.90;999.90;;;12.70;40.90;;;;;;5134590;27;20077;-71
2022/08/30 05:04:14;;;;;;;1999.90;999.90;;;12.70;33.90;;;;;;5153074;27;20078;-70
2022/08/30 05:06:41;;;;;;;1999.90;999.90;;;12.60;28.10;;;;;;5134438;27;20039;-71
2022/08/30 05:09:06;;;;;;;1999.90;999.90;;;12.60;23.30;;;;;;5133922;27;20177;-70
2022/08/30 05:11:32;;;;;;;1999.90;999.90;;;12.60;18.90;;;;;;5151531;27;20039;-71
2022/08/30 05:13:58;;;;;;;1999.90;999.90;;;12.60;14.00;;;;;;5133366;27;20133;-74
2022/08/30 05:16:24;;;;;;;1999.90;999.90;;;12.50;9.80;;;;;;5151487;27;20043;-75
2022/08/30 05:18:51;;;;;;;1999.90;999.90;;;12.50;7.00;;;;;;5151295;27;20045;-71
2022/08/30 05:21:22;;;;;;;1999.90;999.90;;;12.50;3.50;;;;;;5152596;27;20555;-70
2022/08/30 05:23:49;;;;;;;1999.90;999.90;;;12.50;1.00;;;;;;5133418;27;20042;-76
2022/08/30 05:26:21;;;;;;;1999.90;999.90;;;11.90;1.00;;;;;;5150806;27;20522;-70
2022/08/30 05:28:47;;;;;;;1999.90;999.90;;;12.50;1.00;;;;;;5151907;27;20095;-75
2022/08/30 05:31:19;;;;;;;1999.90;999.90;;;12.60;1.00;;;;;;5154299;27;20382;-70
2022/08/30 05:33:46;;;;;;;1999.90;999.90;;;12.60;1.00;;;;;;5156744;27;20130;-70
2022/08/30 05:36:13;;;;;;;1999.90;999.90;;;12.60;1.00;;;;;;5154712;27;20428;-70
2022/08/30 05:38:39;;;;;;;1999.90;999.90;;;12.60;1.00;;;;;;5156500;27;20093;-70
2022/08/30 05:41:05;;;;;;;1999.90;999.90;;;12.60;1.00;;;;;;5156528;27;20043;-70
2022/08/30 05:43:31;;;;;;;1999.90;999.90;;;12.60;1.00;;;;;;5156340;27;20119;-70
2022/08/30 05:46:02;;;;;;;1999.90;999.90;;;12.60;1.00;;;;;;5155069;27;20073;-70
2022/08/30 05:48:28;;;;;;;1999.90;999.90;;;12.70;1.00;;;;;;5155995;27;20099;-71
2022/08/30 05:51:12;;;;;;;1999.90;999.90;;;12.70;1.00;;;;;;5155906;27;20122;-71
2022/08/30 05:53:39;;;;;;;1999.90;999.90;;;12.70;1.00;;;;;;5155516;27;20475;-73
2022/08/30 05:56:08;;;;;;;1999.90;999.90;;;12.80;1.00;;;;;;5155373;27;20039;-71
2022/08/30 05:58:35;;;;;;;1999.90;999.90;;;12.80;1.00;;;;;;5155246;27;20092;-71
2022/08/30 06:01:00;;;;;;;1999.90;999.90;;;12.90;1.00;;;;;;5155459;27;20068;-73
2022/08/30 06:03:27;;;;;;;1999.90;999.90;;;12.90;1.00;;;;;;5155885;27;20043;-70
2022/08/30 06:05:53;;;;;;;1999.90;999.90;;;12.90;1.00;;;;;;5155451;27;20035;-72
2022/08/30 06:08:20;;;;;;;1999.90;999.90;;;13.00;1.00;;;;;;5137593;27;20141;-70
2022/08/30 06:10:46;;;;;;;1999.90;999.90;;;13.00;1.00;;;;;;5155298;27;20125;-73
2022/08/30 06:13:12;;;;;;;1999.90;999.90;;;13.10;1.00;;;;;;5137395;27;20694;-71
2022/08/30 06:15:38;;;;;;;1999.90;999.90;;;13.10;1.00;;;;;;5156938;27;20402;-71
2022/08/30 06:18:04;;;;;;;1999.90;999.90;;;13.20;1.00;;;;;;5156610;27;20038;-71
2022/08/30 06:20:30;;;;;;;1999.90;999.90;;;13.30;1.00;;;;;;5138534;27;20605;-71
2022/08/30 06:22:56;;;;;;;1999.90;999.90;;;13.30;1.00;;;;;;5138008;27;20082;-72
2022/08/30 06:25:21;;;;;;;1999.90;999.90;;;13.60;1.00;;;;;;5154596;27;20078;-74
2022/08/30 06:27:47;;;;;;;1999.90;999.90;;;13.50;1.00;;;;;;5155463;27;20082;-71
2022/08/30 06:30:13;;;;;;;1999.90;999.90;;;13.50;1.00;;;;;;5155103;27;20289;-71
2022/08/30 06:32:39;;;;;;;1999.90;999.90;;;13.60;1.00;;;;;;5155614;27;20046;-71
2022/08/30 06:35:06;;;;;;;1999.90;999.90;;;13.60;1.00;;;;;;5155767;27;20413;-71
2022/08/30 06:37:32;;;;;;;1999.90;999.90;;;13.70;1.00;;;;;;5137736;27;20054;-72
2022/08/30 06:39:59;;;;;;;1999.90;999.90;;;13.80;1.00;;;;;;5155064;27;20042;-72
2022/08/30 06:42:30;;;;;;;1999.90;999.90;;;13.80;1.00;;;;;;5154244;27;20398;-72
2022/08/30 06:44:57;;;;;;;1999.90;999.90;;;13.90;1.00;;;;;;5137745;27;20483;-71
2022/08/30 06:47:23;;;;;;;1999.90;999.90;;;13.90;1.00;;;;;;5155658;27;20479;-72
2022/08/30 06:49:49;;;;;;;1999.90;999.90;;;14.00;1.00;;;;;;5156163;27;20054;-71
2022/08/30 06:52:14;;;;;;;1999.90;999.90;;;14.10;1.00;;;;;;5156130;27;20039;-71
2022/08/30 06:54:40;;;;;;;1999.90;999.90;;;14.20;1.00;;;;;;5137997;27;20409;-71
2022/08/30 06:57:06;;;;;;;1999.90;999.90;;;14.30;1.00;;;;;;5136801;27;20072;-71
2022/08/30 06:59:31;;;;;;;1999.90;999.90;;;14.40;1.00;;;;;;5138152;27;20086;-71
2022/08/30 07:01:57;;;;;;;1999.90;999.90;;;14.60;1.00;;;;;;5137269;27;20125;-71
2022/08/30 07:04:23;;;;;;;1999.90;999.90;;;14.70;1.00;;;;;;5137772;27;20038;-71
2022/08/30 07:06:49;;;;;;;1999.90;999.90;;;14.70;1.00;;;;;;5156048;27;20046;-73
2022/08/30 07:09:15;;;;;;;1999.90;999.90;;;14.90;1.00;;;;;;5155600;27;20038;-71
2022/08/30 07:11:41;;;;;;;1999.90;999.90;;;15.00;19.40;;;;;;5155669;27;20331;-71
2022/08/30 07:14:07;;;;;;;1999.90;999.90;;;15.10;58.80;;;;;;5137192;27;20479;-71
2022/08/30 07:16:33;;;;;;;1999.90;999.90;;;15.20;92.50;;;;;;5154749;27;20050;-71
2022/08/30 07:19:00;;;;;;;1999.90;999.90;;;15.30;99.90;;;;;;5155432;27;20479;-77
2022/08/30 07:21:35;;;;;;;1999.90;999.90;;;15.40;99.90;;;;;;5155731;27;20042;-72
2022/08/30 07:24:02;;;;;;;1999.90;999.90;;;15.40;99.90;;;;;;5137104;27;20807;-71
2022/08/30 07:26:35;;;;;;;1999.90;999.90;;;15.50;99.90;;;;;;5136463;27;20063;-71
2022/08/30 07:29:02;;;;;;;1999.90;999.90;;;15.60;99.90;;;;;;5154543;27;20055;-71
2022/08/30 07:31:28;;;;;;;1999.90;999.90;;;15.70;99.90;;;;;;5155188;27;20054;-71
2022/08/30 07:33:55;;;;;;;1999.90;811.30;;;16.60;99.90;;;;;;5153936;27;20471;-72
2022/08/30 07:36:21;;;;;;;1999.90;808.80;;;18.60;99.90;;;;;;5153973;27;20084;-73
2022/08/30 07:38:48;;;;;;;1999.90;684.25;;;20.30;99.90;;;;;;5154236;27;20038;-73
2022/08/30 07:41:40;;;;;;;1999.90;859.22;;;21.90;1.00;;;;;;5154751;27;20042;-72
2022/08/30 07:44:07;;;;;;;1999.90;699.53;;;23.50;99.90;;;;;;5150084;27;20054;-72
2022/08/30 07:46:33;;;;;;;1999.90;999.90;;;24.60;96.60;;;;;;5155356;27;20039;-72
2022/08/30 07:49:00;;;;;;;1999.90;999.90;;;25.60;91.80;;;;;;5155210;27;20043;-73
2022/08/30 07:51:26;;;;;;;1999.90;999.90;;;26.60;38.90;;;;;;5155195;27;20121;-73
2022/08/30 07:53:52;;;;;;;1999.90;999.90;;;27.50;1.60;;;;;;5155206;27;20134;-73
2022/08/30 07:56:19;;;;;;;1999.90;999.90;;;28.50;1.00;;;;;;5154791;27;20039;-73
2022/08/30 07:58:44;;;;;;;1999.90;999.90;;;29.10;1.00;;;;;;5136554;27;20031;-73
2022/08/30 08:01:11;;;;;;;1999.90;999.90;;;29.80;1.00;;;;;;5154925;27;20433;-73
2022/08/30 08:03:39;;;;;;;1999.90;999.90;;;30.30;1.00;;;;;;5136485;27;20046;-73
2022/08/30 08:06:07;;;;;;;1999.90;999.90;;;30.40;1.00;;;;;;5154439;27;20087;-74
2022/08/30 08:08:34;;;;;;;1999.90;999.90;;;30.80;1.00;;;;;;5136706;27;20046;-73
2022/08/30 08:11:13;;;;;;;1999.90;999.90;;;31.20;1.00;;;;;;5154901;27;20051;-73
2022/08/30 08:13:40;;;;;;;1999.90;999.90;;;31.70;1.00;;;;;;5154613;27;20069;-73
2022/08/30 08:16:05;;;;;;;1999.90;999.90;;;32.30;1.00;;;;;;5154494;27;20054;-73
2022/08/30 08:18:32;;;;;;;1999.90;999.90;;;32.40;1.00;;;;;;5154826;27;20047;-74
2022/08/30 08:20:58;;;;;;;1999.90;999.90;;;32.70;1.00;;;;;;5154910;27;20046;-73
2022/08/30 08:23:24;;;;;;;1999.90;999.90;;;32.70;1.00;;;;;;5118329;27;20051;-73
2022/08/30 08:25:51;;;;;;;1999.90;999.90;;;32.90;1.00;;;;;;5153997;27;20050;-72
2022/08/30 08:28:17;;;;;;;1999.90;999.90;;;33.20;1.00;;;;;;5154273;27;20049;-72
2022/08/30 08:30:42;;;;;;;1999.90;999.90;;;33.40;1.00;;;;;;5154597;27;20070;-74
2022/08/30 08:33:09;;;;;;;1999.90;999.90;;;33.60;1.00;;;;;;5154567;27;20046;-73
2022/08/30 08:35:35;;;;;;;1999.90;999.90;;;33.70;1.00;;;;;;5154376;27;20050;-72
2022/08/30 08:38:01;;;;;;;1999.90;999.90;;;34.10;1.00;;;;;;5135944;27;20046;-72
2022/08/30 08:40:29;;;;;;;1999.90;999.90;;;34.20;99.90;;;;;;5154027;27;20047;-73
2022/08/30 08:43:00;;;;;;;1999.90;999.90;;;34.30;99.90;;;;;;5154287;27;20042;-73
2022/08/30 08:45:34;;;;;;;1999.90;999.90;;;34.40;99.90;;;;;;5153652;27;20046;-73
2022/08/30 08:48:08;;;;;;;1999.90;999.90;;;34.10;99.90;;;;;;5136126;27;20107;-73
2022/08/30 08:50:33;;;;;;;1999.90;999.90;;;34.50;99.90;;;;;;5135967;27;20045;-72
2022/08/30 08:55:56;;;;;;;1999.90;999.90;;;35.30;99.90;;;;;;5153992;27;20091;-73
2022/08/30 08:58:38;;;;;;;1999.90;999.90;;;35.50;99.90;;;;;;5135196;27;20054;-73
2022/08/30 09:01:05;;;;;;;1999.90;999.90;;;35.00;99.90;;;;;;5154206;27;20468;-73
2022/08/30 09:03:31;;;;;;;1999.90;999.90;;;35.50;99.90;;;;;;5118584;27;20051;-73
2022/08/30 09:05:57;;;;;;;1999.90;999.90;;;36.00;99.90;;;;;;5156177;27;20046;-73
2022/08/30 09:08:24;;;;;;;1999.90;999.90;;;35.20;99.90;;;;;;5139930;27;20131;-73
2022/08/30 09:10:55;;;;;;;1999.90;999.90;;;35.20;99.90;;;;;;5158395;27;20039;-73
2022/08/30 09:13:23;;;;;;;1999.90;999.90;;;35.70;99.90;;;;;;5157715;27;20529;-73
2022/08/30 09:15:51;;;;;;;1999.90;999.90;;;35.90;99.90;;;;;;5158162;27;20047;-73
2022/08/30 09:18:17;;;;;;;1999.90;999.90;;;36.30;99.90;;;;;;5139083;27;20042;-73
2022/08/30 09:20:47;;;;;;;1999.90;999.90;;;36.40;99.90;;;;;;5158331;27;20050;-74
2022/08/30 09:23:13;;;;;;;1999.90;999.90;;;35.70;99.90;;;;;;5158004;27;20088;-73
2022/08/30 09:25:59;;;;;;;1999.90;999.90;;;36.30;99.90;;;;;;5157518;27;20059;-74
2022/08/30 09:28:29;;;;;;;1999.90;999.90;;;36.80;99.90;;;;;;5157921;27;20053;-73
2022/08/30 09:31:06;;;;;;;1999.90;999.90;;;36.90;99.90;;;;;;5139786;27;20045;-73
2022/08/30 09:33:32;;;;;;;1999.90;999.90;;;37.00;99.90;;;;;;5157690;27;20093;-73
2022/08/30 09:36:15;;;;;;;1999.90;999.90;;;36.80;99.90;;;;;;5157888;27;20080;-73
2022/08/30 09:38:40;;;;;;;1999.90;999.90;;;37.10;99.90;;;;;;5157821;27;20042;-73
2022/08/30 09:41:28;;;;;;;1999.90;999.90;;;36.70;99.90;;;;;;5157507;27;20451;-73
2022/08/30 09:44:07;;;;;;;1999.90;999.90;;;35.90;99.90;;;;;;5139355;27;20394;-73
2022/08/30 09:46:41;;;;;;;1999.90;999.90;;;35.80;99.90;;;;;;5157416;27;20130;-76
2022/08/30 09:49:29;;;;;;;1999.90;999.90;;;35.80;99.90;;;;;;5157439;27;20084;-73
2022/08/30 09:52:21;;;;;;;1999.90;999.90;;;36.20;99.90;;;;;;5157275;27;20043;-73
2022/08/30 09:55:39;;;;;;;1999.90;999.90;;;35.30;99.90;;;;;;5157196;27;20053;-74
2022/08/30 09:58:17;;;;;;;1999.90;999.90;;;34.00;99.90;;;;;;5135307;27;20115;-73
2022/08/30 10:00:54;;;;;;;1999.90;999.90;;;33.80;99.90;;;;;;5157959;27;20054;-71
2022/08/30 10:03:34;;;;;;;1999.90;999.90;;;34.30;99.90;;;;;;5138806;27;20047;-71
2022/08/30 10:06:13;;;;;;;1999.90;999.90;;;35.20;99.90;;;;;;5157462;27;20395;-71
2022/08/30 10:09:15;;;;;;;1999.90;999.90;;;35.60;99.90;;;;;;5157064;27;20057;-71
2022/08/30 10:11:58;;;;;;;1999.90;999.90;;;35.80;99.90;;;;;;5156519;27;20108;-73
2022/08/30 10:14:42;;;;;;;1999.90;999.90;;;36.00;99.90;;;;;;5156377;27;20098;-71
2022/08/30 10:17:37;;;;;;;1999.90;999.90;;;35.50;99.90;;;;;;5157138;27;20043;-72
2022/08/30 10:20:21;;;;;;;1999.90;999.90;;;35.40;99.90;;;;;;5157052;27;20543;-71
2022/08/30 10:22:57;;;;;;;1999.90;999.90;;;35.70;99.90;;;;;;5156771;27;20093;-72
2022/08/30 10:25:53;;;;;;;1999.90;999.90;;;36.60;99.90;;;;;;5138058;27;20243;-72
2022/08/30 10:28:33;;;;;;;1999.90;999.90;;;37.40;99.90;;;;;;5147664;27;20483;-73
2022/08/30 10:31:05;;;;;;;1999.90;999.90;;;37.40;99.90;;;;;;5138761;27;20057;-72
2022/08/30 10:33:41;;;;;;;1999.90;999.90;;;37.70;99.90;;;;;;5155933;27;20451;-72
2022/08/30 10:36:12;;;;;;;1999.90;999.90;;;37.90;99.90;;;;;;5138187;27;20043;-72
2022/08/30 10:38:51;;;;;;;1999.90;999.90;;;38.50;99.90;;;;;;5138195;27;20395;-71
2022/08/30 10:41:36;;;;;;;1999.90;999.90;;;39.20;99.90;;;;;;5156759;27;20042;-71
2022/08/30 10:44:02;;;;;;;1999.90;999.90;;;39.00;99.90;;;;;;5156779;27;20045;-71
2022/08/30 10:46:55;;;;;;;1999.90;999.90;;;39.00;99.90;;;;;;5137745;27;20043;-71
2022/08/30 10:49:24;;;;;;;1999.90;999.90;;;39.20;99.90;;;;;;5138011;27;20039;-72
2022/08/30 10:52:06;;;;;;;1999.90;999.90;;;39.40;99.90;;;;;;5156548;27;20046;-71
2022/08/30 10:55:07;;;;;;;1999.90;999.90;;;39.80;99.90;;;;;;5137678;27;20042;-71
2022/08/30 10:57:33;;;;;;;1999.90;999.90;;;40.00;99.90;;;;;;5137476;27;20513;-71
2022/08/30 11:00:03;;;;;;;1999.90;999.90;;;39.60;99.90;;;;;;5156634;27;20042;-71
2022/08/30 11:03:00;;;;;;;1999.90;999.90;;;38.80;99.90;;;;;;5155644;27;20500;-71
2022/08/30 11:05:33;;;;;;;1999.90;999.90;;;38.90;99.90;;;;;;5155932;27;20042;-71
2022/08/30 11:08:10;;;;;;;1999.90;999.90;;;38.10;99.90;;;;;;5156094;27;20080;-71
2022/08/30 11:11:00;;;;;;;1999.90;999.90;;;38.40;99.90;;;;;;5155898;27;20113;-71
2022/08/30 11:13:29;;;;;;;1999.90;999.90;;;38.40;99.90;;;;;;5155432;27;20057;-71
2022/08/30 11:16:05;;;;;;;1999.90;999.90;;;38.50;99.90;;;;;;5156149;27;20123;-72
2022/08/30 11:18:55;;;;;;;1999.90;999.90;;;38.70;99.90;;;;;;5137026;27;20047;-72
2022/08/30 11:21:35;;;;;;;1999.90;999.90;;;39.10;99.90;;;;;;5156022;27;20465;-73
2022/08/30 11:24:20;;;;;;;1999.90;999.90;;;38.70;99.90;;;;;;5155810;27;20034;-71
2022/08/30 11:26:49;;;;;;;1999.90;999.90;;;38.80;99.90;;;;;;5154767;27;20131;-72
2022/08/30 11:29:35;;;;;;;1999.90;999.90;;;39.00;99.90;;;;;;5155150;27;20046;-73
2022/08/30 11:32:13;;;;;;;1999.90;999.90;;;39.10;99.90;;;;;;5155726;27;20111;-72
2022/08/30 11:34:47;;;;;;;1999.90;999.90;;;39.10;99.90;;;;;;5155299;27;20100;-72
2022/08/30 11:37:34;;;;;;;1999.90;999.90;;;39.10;99.90;;;;;;5155297;27;20035;-72
2022/08/30 11:40:19;;;;;;;1999.90;999.90;;;38.70;99.90;;;;;;5155756;27;20433;-72
2022/08/30 11:42:50;;;;;;;1999.90;999.90;;;38.80;99.90;;;;;;5136572;27;20039;-72
2022/08/30 11:45:22;;;;;;;1999.90;999.90;;;38.80;99.90;;;;;;5155347;27;20042;-72
2022/08/30 11:47:56;;;;;;;1999.90;999.90;;;38.50;99.90;;;;;;5155037;27;20043;-72
2022/08/30 11:50:32;;;;;;;1999.90;999.90;;;38.20;99.90;;;;;;5155560;27;20074;-73
2022/08/30 11:53:14;;;;;;;1999.90;999.90;;;38.20;99.90;;;;;;5155385;27;20039;-73
2022/08/30 11:55:58;;;;;;;1999.90;999.90;;;38.80;99.90;;;;;;5154685;27;20477;-73
2022/08/30 11:58:49;;;;;;;1999.90;999.90;;;38.30;99.90;;;;;;5155191;27;20117;-73
2022/08/30 12:01:20;;;;;;;1999.90;999.90;;;39.00;99.90;;;;;;5155063;27;20478;-73
2022/08/30 12:04:02;;;;;;;1999.90;999.90;;;39.10;99.90;;;;;;5154956;27;20039;-72
2022/08/30 12:06:59;;;;;;;1999.90;999.90;;;39.20;99.90;;;;;;5154331;27;20031;-73
2022/08/30 12:09:25;;;;;;;1999.90;999.90;;;39.20;99.90;;;;;;5153591;27;20067;-72
2022/08/30 12:11:56;;;;;;;1999.90;999.90;;;39.30;99.90;;;;;;5154773;27;20122;-72
2022/08/30 12:14:50;;;;;;;1999.90;999.90;;;38.50;99.90;;;;;;5155078;27;20082;-72
2022/08/30 12:20:39;;;;;;;1999.90;999.90;;;36.70;99.90;;;;;;5133722;27;20045;-74
2022/08/30 12:23:28;;;;;;;1999.90;999.90;;;35.30;99.90;;;;;;5153888;27;20439;-72